Terminal Aerodrome Forecast
Issued by NWS

Home | Current Version | Previous Version | Text Only | Print | Product List | Glossary Off
Versions: 1 2 3 4 5 6 7 8 9 10 11 12 13 14

000
FTUS43 KEAX 190500
TAFSTJ
TAF
KSTJ 190522Z 1906/2006 16008KT P6SM FEW250
     FM191500 18017G27KT P6SM FEW250
     FM200000 16010KT P6SM SCT250=

USA.gov is the U.S. government's official web portal to all federal, state and local government web resources and services.